GQPA/ATR METAR and TAF weather

Enter ICAO airport designator
Station Type Date Time Source
GQPA METAR 2021/05/13 12:00 UTC NOAA

GQPA 131200Z 36008KT 8000 NSC 35/06 Q1016


Station Type Date Time Source
GQPA Decoded METAR 2021/05/13 12:00 UTC NOAA

Atar, Mauritania (GQPA) 20-31N 013-04W 224M
May 13, 2021 - 08:00 AM EDT / 2021.05.13 1200 UTC
Wind: from the N (360 degrees) at 9 MPH (8 KT):0
Visibility: 4 mile(s):0
Temperature: 95 F (35 C)
Dew Point: 42 F (6 C)
Relative Humidity: 16%
Pressure (altimeter): 30.00 in. Hg (1016 hPa)
ob: GQPA 131200Z 36008KT 8000 NSC 35/06 Q1016
cycle: 12

Station Type Date Time Source
GQPA TAF UTC NOAA

Error!

Example: see airport list